createdAt,value
2024-02-08T00:00:43.471Z,98607.53
2024-02-08T00:03:12.188Z,98611.72
2024-02-08T00:05:39.079Z,98610.78
2024-02-08T00:08:06.125Z,98616.78
2024-02-08T00:10:33.291Z,98612.50
2024-02-08T00:13:00.168Z,98615.84
2024-02-08T00:15:30.378Z,98608.88
2024-02-08T00:17:58.015Z,98613.09
2024-02-08T00:20:25.352Z,98622.63
2024-02-08T00:22:54.977Z,98623.47
2024-02-08T00:25:24.328Z,98616.38
2024-02-08T00:27:53.544Z,98622.38
2024-02-08T00:30:20.556Z,98619.63
2024-02-08T00:32:47.717Z,98619.56
2024-02-08T00:35:18.550Z,98614.34
2024-02-08T00:37:50.154Z,98614.41
2024-02-08T00:40:18.419Z,98614.16
2024-02-08T00:42:47.418Z,98610.63
2024-02-08T00:45:17.656Z,98605.31
2024-02-08T00:47:44.564Z,98612.28
2024-02-08T00:50:11.392Z,98608.84
2024-02-08T00:52:38.470Z,98600.94
2024-02-08T00:55:05.544Z,98601.66
2024-02-08T00:57:34.112Z,98598.97
2024-02-08T01:00:01.220Z,98596.38
2024-02-08T01:02:27.983Z,98591.88
2024-02-08T01:04:54.706Z,98583.94
2024-02-08T01:07:21.630Z,98593.50
2024-02-08T01:09:48.219Z,98598.59
2024-02-08T01:12:14.779Z,98597.78
2024-02-08T01:14:43.432Z,98596.00
2024-02-08T01:17:10.345Z,98607.22
2024-02-08T01:19:37.618Z,98599.38
2024-02-08T01:22:04.447Z,98595.81
2024-02-08T01:24:31.055Z,98592.28
2024-02-08T01:26:57.917Z,98595.75
2024-02-08T01:29:26.520Z,98602.66
2024-02-08T01:31:54.121Z,98605.25
2024-02-08T01:34:25.054Z,98608.72
2024-02-08T01:36:54.451Z,98606.09
2024-02-08T01:39:24.519Z,98610.31
2024-02-08T01:41:52.171Z,98613.78
2024-02-08T01:44:19.713Z,98611.16
2024-02-08T01:46:49.479Z,98615.47
2024-02-08T01:49:22.593Z,98619.84
2024-02-08T01:51:49.821Z,98613.59
2024-02-08T01:54:18.636Z,98616.97
2024-02-08T01:56:45.803Z,98607.31
2024-02-08T01:59:14.768Z,98602.09
2024-02-08T02:01:48.292Z,98605.47
2024-02-08T02:04:17.112Z,98598.56
2024-02-08T02:06:44.092Z,98595.13
2024-02-08T02:09:12.472Z,98595.97
2024-02-08T02:11:52.561Z,98588.00
2024-02-08T02:14:19.796Z,98588.00
2024-02-08T02:16:47.781Z,98579.44
2024-02-08T02:19:14.465Z,98582.91
2024-02-08T02:21:41.142Z,98582.91
2024-02-08T02:24:09.000Z,98591.66
2024-02-08T02:26:36.252Z,98580.38
2024-02-08T02:29:04.382Z,98572.59
2024-02-08T02:34:00.524Z,98570.94
2024-02-08T02:36:27.509Z,98570.09
2024-02-08T02:38:54.075Z,98564.84
2024-02-08T02:41:21.027Z,98563.19
2024-02-08T02:43:48.633Z,98561.59
2024-02-08T02:46:15.351Z,98566.91
2024-02-08T02:48:42.728Z,98565.22
2024-02-08T02:51:13.344Z,98564.47
2024-02-08T02:53:43.447Z,98555.03
2024-02-08T02:56:10.259Z,98563.81
2024-02-08T02:58:37.069Z,98553.44
2024-02-08T03:01:05.881Z,98557.91
2024-02-08T03:03:41.560Z,98558.09
2024-02-08T03:06:16.256Z,98559.03
2024-02-08T03:08:47.889Z,98571.34
2024-02-08T03:11:15.404Z,98560.88
2024-02-08T03:13:44.225Z,98545.28
2024-02-08T03:16:18.539Z,98545.38
2024-02-08T03:18:47.720Z,98548.84
2024-02-08T03:21:23.015Z,98542.84
2024-02-08T03:23:51.453Z,98538.56
2024-02-08T03:26:18.433Z,98550.81
2024-02-08T03:28:45.454Z,98538.66
2024-02-08T03:31:12.755Z,98533.44
2024-02-08T03:33:39.688Z,98529.06
2024-02-08T03:36:09.671Z,98531.66
2024-02-08T03:38:36.601Z,98533.44
2024-02-08T03:41:03.225Z,98535.13
2024-02-08T03:43:29.795Z,98534.28
2024-02-08T03:45:56.975Z,98533.44
2024-02-08T03:48:24.320Z,98540.34
2024-02-08T03:50:51.800Z,98535.13
2024-02-08T03:53:19.404Z,98533.44
2024-02-08T03:55:46.231Z,98539.50
2024-02-08T03:58:15.504Z,98525.69
2024-02-08T04:00:48.130Z,98527.47
2024-02-08T04:03:37.787Z,98518.69
2024-02-08T04:06:17.817Z,98523.81
2024-02-08T04:09:04.372Z,98537.63
2024-02-08T04:11:49.505Z,98532.41
2024-02-08T04:14:34.423Z,98531.56
2024-02-08T04:17:19.339Z,98530.72
2024-02-08T04:20:04.198Z,98520.28
2024-02-08T04:22:49.241Z,98528.13
2024-02-08T04:25:35.735Z,98530.63
2024-02-08T04:28:20.590Z,98521.94
2024-02-08T04:31:22.252Z,98519.25
2024-02-08T04:34:07.747Z,98520.03
2024-02-08T04:36:52.652Z,98530.38
2024-02-08T04:39:37.598Z,98525.97
2024-02-08T04:42:22.858Z,98525.06
2024-02-08T04:45:07.779Z,98526.75
2024-02-08T04:47:55.634Z,98524.13
2024-02-08T04:50:41.075Z,98520.59
2024-02-08T04:53:25.990Z,98524.03
2024-02-08T04:55:53.042Z,98523.09
2024-02-08T04:58:36.984Z,98522.25
2024-02-08T05:01:06.818Z,98524.78
2024-02-08T05:03:38.150Z,98524.78
2024-02-08T05:06:12.243Z,98525.63
2024-02-08T05:08:39.926Z,98512.47
2024-02-08T05:11:10.933Z,98512.47
2024-02-08T05:13:43.318Z,98516.00
2024-02-08T05:16:15.465Z,98519.28
2024-02-08T05:18:43.583Z,98515.84
2024-02-08T05:21:14.903Z,98507.25
2024-02-08T05:23:42.889Z,98505.47
2024-02-08T05:26:11.138Z,98511.63
2024-02-08T05:28:44.438Z,98504.72
2024-02-08T05:31:11.515Z,98508.16
2024-02-08T05:33:41.940Z,98509.00
2024-02-08T05:36:09.595Z,98503.88
2024-02-08T05:38:41.820Z,98508.16
2024-02-08T05:41:10.447Z,98497.72
2024-02-08T05:43:47.612Z,98491.56
2024-02-08T05:46:31.201Z,98489.88
2024-02-08T05:49:06.141Z,98485.41
2024-02-08T05:51:34.080Z,98484.66
2024-02-08T05:54:03.970Z,98486.34
2024-02-08T05:56:31.837Z,98482.88
2024-02-08T05:59:02.863Z,98488.13
2024-02-08T06:01:33.447Z,98494.19
2024-02-08T06:04:03.343Z,98491.66
2024-02-08T06:06:42.779Z,98493.34
2024-02-08T06:09:32.105Z,98487.16
2024-02-08T06:12:09.693Z,98489.78
2024-02-08T06:14:43.263Z,98492.41
2024-02-08T06:17:10.889Z,98488.97
2024-02-08T06:19:38.857Z,98478.59
2024-02-08T06:22:21.265Z,98470.84
2024-02-08T06:24:51.026Z,98479.72
2024-02-08T06:27:24.379Z,98480.75
2024-02-08T06:29:51.304Z,98505.28
2024-02-08T06:32:30.571Z,98514.97
2024-02-08T06:35:08.672Z,98511.69
2024-02-08T06:37:43.526Z,98502.00
2024-02-08T06:40:18.702Z,98496.75
2024-02-08T06:43:05.446Z,98494.22
2024-02-08T06:45:32.360Z,98480.34
2024-02-08T06:48:02.163Z,98473.53
2024-02-08T06:50:47.576Z,98471.94
2024-02-08T06:53:35.310Z,98470.31
2024-02-08T06:56:22.783Z,98459.13
2024-02-08T06:59:07.648Z,98468.06
2024-02-08T07:01:52.590Z,98476.06
2024-02-08T07:04:37.728Z,98480.56
2024-02-08T07:07:23.617Z,98467.59
2024-02-08T07:10:08.647Z,98460.59
2024-02-08T07:12:53.683Z,98471.94
2024-02-08T07:15:38.540Z,98465.91
2024-02-08T07:18:23.912Z,98446.88
2024-02-08T07:21:09.261Z,98458.16
2024-02-08T07:23:54.031Z,98451.25
2024-02-08T07:26:39.490Z,98442.56
2024-02-08T07:29:24.314Z,98445.97
2024-02-08T07:32:09.815Z,98442.31
2024-02-08T07:34:55.278Z,98437.09
2024-02-08T07:37:27.905Z,98438.78
2024-02-08T07:39:55.367Z,98444.72
2024-02-08T07:42:33.228Z,98449.03
2024-02-08T07:45:06.162Z,98448.03
2024-02-08T07:47:34.657Z,98446.13
2024-02-08T07:50:11.197Z,98447.72
2024-02-08T07:52:47.119Z,98447.59
2024-02-08T07:55:43.383Z,98449.09
2024-02-08T07:58:10.278Z,98445.34
2024-02-08T08:00:40.020Z,98441.81
2024-02-08T08:03:11.195Z,98436.50
2024-02-08T08:05:45.309Z,98431.00
2024-02-08T08:08:33.083Z,98429.22
2024-02-08T08:11:04.872Z,98434.25
2024-02-08T08:13:51.557Z,98430.72
2024-02-08T08:16:30.415Z,98421.84
2024-02-08T08:18:58.721Z,98422.50
2024-02-08T08:21:28.429Z,98417.16
2024-02-08T08:24:01.865Z,98423.97
2024-02-08T08:26:40.345Z,98409.91
2024-02-08T08:29:14.459Z,98410.47
2024-02-08T08:31:53.592Z,98411.09
2024-02-08T08:34:24.432Z,98405.69
2024-02-08T08:36:59.618Z,98406.31
2024-02-08T08:39:46.100Z,98405.19
2024-02-08T08:42:19.027Z,98404.06
2024-02-08T08:45:01.337Z,98407.34
2024-02-08T08:47:29.610Z,98409.66
2024-02-08T08:49:56.393Z,98408.53
2024-02-08T08:52:26.567Z,98405.75
2024-02-08T08:55:18.537Z,98398.53
2024-02-08T08:57:48.760Z,98387.03
2024-02-08T09:00:21.416Z,98385.91
2024-02-08T09:02:51.803Z,98373.44
2024-02-08T09:05:22.292Z,98362.91
2024-02-08T09:07:54.714Z,98368.66
2024-02-08T09:10:22.091Z,98368.56
2024-02-08T09:13:00.819Z,98366.72
2024-02-08T09:15:28.875Z,98372.56
2024-02-08T09:18:10.057Z,98366.38
2024-02-08T09:20:38.779Z,98367.88
2024-02-08T09:23:14.597Z,98366.00
2024-02-08T09:25:48.118Z,98366.72
2024-02-08T09:28:26.205Z,98358.78
2024-02-08T09:30:55.167Z,98355.88
2024-02-08T09:33:46.993Z,98358.28
2024-02-08T09:36:17.482Z,98344.03
2024-02-08T09:38:46.237Z,98336.94
2024-02-08T09:41:24.848Z,98343.00
2024-02-08T09:43:59.937Z,98332.25
2024-02-08T09:46:49.370Z,98332.16
2024-02-08T09:49:19.728Z,98336.13
2024-02-08T09:51:55.298Z,98329.00
2024-02-08T09:54:33.267Z,98329.94
2024-02-08T09:57:22.268Z,98321.03
2024-02-08T10:00:08.847Z,98319.06
2024-02-08T10:02:38.327Z,98310.28
2024-02-08T10:05:30.315Z,98311.94
2024-02-08T10:08:07.350Z,98313.63
2024-02-08T10:10:45.063Z,98309.22
2024-02-08T10:13:28.457Z,98304.09
2024-02-08T10:15:57.855Z,98297.81
2024-02-08T10:18:35.043Z,98294.44
2024-02-08T10:21:15.144Z,98285.13
2024-02-08T10:24:14.043Z,98281.47
2024-02-08T10:26:47.206Z,98273.72
2024-02-08T10:29:16.123Z,98269.41
2024-02-08T10:31:42.984Z,98270.44
2024-02-08T10:34:24.467Z,98270.56
2024-02-08T10:36:51.479Z,98262.69
2024-02-08T10:39:27.536Z,98262.84
2024-02-08T10:41:58.190Z,98263.03
2024-02-08T10:44:30.182Z,98263.13
2024-02-08T10:47:07.311Z,98255.28
2024-02-08T10:49:43.352Z,98244.91
2024-02-08T10:52:21.177Z,98244.91
2024-02-08T10:54:55.448Z,98237.91
2024-02-08T10:57:40.521Z,98241.34
2024-02-08T11:00:45.857Z,98235.38
2024-02-08T11:03:35.234Z,98231.81
2024-02-08T11:06:05.159Z,98227.34
2024-02-08T11:08:35.594Z,98226.47
2024-02-08T11:11:10.923Z,98212.53
2024-02-08T11:13:43.444Z,98204.69
2024-02-08T11:16:22.514Z,98207.31
2024-02-08T11:18:54.286Z,98202.81
2024-02-08T11:21:44.878Z,98197.59
2024-02-08T11:24:29.201Z,98192.25
2024-02-08T11:26:59.310Z,98198.44
2024-02-08T11:29:28.538Z,98188.88
2024-02-08T11:31:58.550Z,98185.44
2024-02-08T11:34:35.146Z,98181.97
2024-02-08T11:37:19.141Z,98169.94
2024-02-08T11:39:48.529Z,98180.22
2024-02-08T11:42:19.788Z,98173.28
2024-02-08T11:44:46.699Z,98170.66
2024-02-08T11:47:38.969Z,98163.25
2024-02-08T11:50:10.044Z,98153.28
2024-02-08T11:52:37.804Z,98153.28
2024-02-08T11:55:07.590Z,98144.72
2024-02-08T11:57:38.644Z,98148.38
2024-02-08T12:00:17.617Z,98138.84
2024-02-08T12:03:02.471Z,98138.13
2024-02-08T12:05:31.137Z,98129.53
2024-02-08T12:08:12.096Z,98131.72
2024-02-08T12:10:40.051Z,98135.31
2024-02-08T12:13:07.254Z,98122.41
2024-02-08T12:15:36.958Z,98114.81
2024-02-08T12:18:08.018Z,98115.97
2024-02-08T12:20:37.323Z,98109.06
2024-02-08T12:23:04.138Z,98099.63
2024-02-08T12:25:31.788Z,98097.00
2024-02-08T12:28:05.969Z,98093.66
2024-02-08T12:30:40.700Z,98094.53
2024-02-08T12:33:10.335Z,98091.91
2024-02-08T12:35:42.050Z,98090.22
2024-02-08T12:38:12.286Z,98083.31
2024-02-08T12:40:40.416Z,98085.94
2024-02-08T12:43:09.652Z,98071.19
2024-02-08T12:45:37.104Z,98077.38
2024-02-08T12:48:05.905Z,98075.78
2024-02-08T12:50:36.248Z,98078.63
2024-02-08T12:53:06.937Z,98069.22
2024-02-08T12:55:33.669Z,98072.75
2024-02-08T12:58:05.784Z,98072.88
2024-02-08T13:00:35.112Z,98084.16
2024-02-08T13:03:07.194Z,98077.25
2024-02-08T13:05:39.441Z,98078.91
2024-02-08T13:08:09.636Z,98073.69
2024-02-08T13:10:39.715Z,98077.06
2024-02-08T13:15:42.691Z,98076.09
2024-02-08T13:18:11.720Z,98078.81
2024-02-08T13:20:42.077Z,98089.28
2024-02-08T13:23:11.105Z,98092.00
2024-02-08T13:25:40.779Z,98086.25
2024-02-08T13:28:11.047Z,98080.41
2024-02-08T13:30:40.808Z,98080.91
2024-02-08T13:33:11.506Z,98083.34
2024-02-08T13:35:41.980Z,98085.81
2024-02-08T13:38:12.294Z,98083.09
2024-02-08T13:40:46.623Z,98075.03
2024-02-08T13:43:14.143Z,98073.16
2024-02-08T13:45:42.152Z,98071.00
2024-02-08T13:48:17.275Z,98069.75
2024-02-08T13:50:45.200Z,98068.34
2024-02-08T13:53:15.717Z,98061.66
2024-02-08T13:56:03.962Z,98058.28
2024-02-08T13:58:31.716Z,98059.34
2024-02-08T14:00:59.743Z,98059.47
2024-02-08T14:03:30.576Z,98045.56
2024-02-08T14:06:00.767Z,98034.47
2024-02-08T14:08:31.345Z,98024.94
2024-02-08T14:11:01.214Z,98006.25
2024-02-08T14:13:34.517Z,97998.63
2024-02-08T14:16:07.789Z,97989.31
2024-02-08T14:18:38.769Z,97980.13
2024-02-08T14:21:10.750Z,97969.97
2024-02-08T14:23:42.353Z,97958.06
2024-02-08T14:26:10.154Z,97954.06
2024-02-08T14:28:48.652Z,97944.03
2024-02-08T14:31:17.298Z,97932.03
2024-02-08T14:33:47.919Z,97930.66
2024-02-08T14:36:15.757Z,97930.03
2024-02-08T14:38:46.183Z,97932.19
2024-02-08T14:41:34.904Z,97916.81
2024-02-08T14:44:09.648Z,97930.19
2024-02-08T14:46:41.573Z,97917.50
2024-02-08T14:49:30.403Z,97909.16
2024-02-08T14:52:16.131Z,97901.63
2024-02-08T14:54:43.644Z,97898.47
2024-02-08T14:57:11.933Z,97898.78
2024-02-08T14:59:52.604Z,97893.84
2024-02-08T15:02:22.823Z,97893.31
2024-02-08T15:04:54.276Z,97893.50
2024-02-08T15:07:40.127Z,97883.25
2024-02-08T15:10:11.482Z,97880.88
2024-02-08T15:12:57.876Z,97877.50
2024-02-08T15:15:32.183Z,97864.69
2024-02-08T15:18:12.985Z,97868.28
2024-02-08T15:20:57.751Z,97865.91
2024-02-08T15:23:35.560Z,97864.22
2024-02-08T15:26:04.670Z,97855.66
2024-02-08T15:28:40.527Z,97853.16
2024-02-08T15:31:13.516Z,97843.66
2024-02-08T15:33:57.062Z,97841.16
2024-02-08T15:36:33.326Z,97838.84
2024-02-08T15:39:23.224Z,97836.22
2024-02-08T15:41:53.545Z,97831.13
2024-02-08T15:44:35.417Z,97820.81
2024-02-08T15:47:12.934Z,97813.09
2024-02-08T15:49:40.209Z,97790.59
2024-02-08T15:52:15.672Z,97798.50
2024-02-08T15:54:45.146Z,97794.22
2024-02-08T15:57:15.290Z,97781.28
2024-02-08T15:59:45.847Z,97774.50
2024-02-08T16:02:19.063Z,97769.47
2024-02-08T16:04:51.575Z,97761.84
2024-02-08T16:07:21.475Z,97754.22
2024-02-08T16:09:59.133Z,97751.84
2024-02-08T16:12:31.694Z,97745.97
2024-02-08T16:15:01.383Z,97735.69
2024-02-08T16:17:38.879Z,97728.06
2024-02-08T16:20:17.838Z,97725.72
2024-02-08T16:22:58.218Z,97732.81
2024-02-08T16:25:44.327Z,97735.59
2024-02-08T16:28:18.745Z,97732.28
2024-02-08T16:30:59.506Z,97722.75
2024-02-08T16:33:34.613Z,97716.00
2024-02-08T16:36:10.331Z,97719.53
2024-02-08T16:38:47.789Z,97708.28
2024-02-08T16:41:16.000Z,97691.00
2024-02-08T16:43:45.200Z,97691.00
2024-02-08T16:46:14.243Z,97677.16
2024-02-08T16:48:48.198Z,97681.50
2024-02-08T16:51:18.183Z,97675.38
2024-02-08T16:53:51.145Z,97658.94
2024-02-08T16:56:22.582Z,97649.44
2024-02-08T16:58:56.950Z,97643.41
2024-02-08T17:01:29.286Z,97639.13
2024-02-08T17:04:17.190Z,97623.63
2024-02-08T17:07:04.217Z,97627.03
2024-02-08T17:09:51.306Z,97632.25
2024-02-08T17:12:46.291Z,97632.25
2024-02-08T17:15:22.137Z,97635.88
2024-02-08T17:17:51.492Z,97639.34
2024-02-08T17:20:36.348Z,97640.28
2024-02-08T17:23:18.119Z,97631.63
2024-02-08T17:26:07.763Z,97626.41
2024-02-08T17:28:50.895Z,97612.56
2024-02-08T17:31:29.799Z,97619.31
2024-02-08T17:33:57.911Z,97623.63
2024-02-08T17:36:34.212Z,97622.88
2024-02-08T17:39:00.871Z,97630.69
2024-02-08T17:41:28.323Z,97609.84
2024-02-08T17:44:04.977Z,97595.91
2024-02-08T17:46:35.518Z,97610.59
2024-02-08T17:49:05.736Z,97612.28
2024-02-08T17:51:33.137Z,97600.81
2024-02-08T17:54:01.800Z,97594.78
2024-02-08T17:56:32.818Z,97599.06
2024-02-08T17:59:00.324Z,97605.00
2024-02-08T18:01:33.519Z,97614.47
2024-02-08T18:04:03.527Z,97616.16
2024-02-08T18:06:33.495Z,97614.28
2024-02-08T18:09:00.275Z,97602.09
2024-02-08T18:11:31.016Z,97596.69
2024-02-08T18:13:59.831Z,97599.19
2024-02-08T18:16:29.477Z,97588.78
2024-02-08T18:19:04.829Z,97581.81
2024-02-08T18:21:35.128Z,97590.44
2024-02-08T18:24:03.921Z,97578.25
2024-02-08T18:26:32.809Z,97584.31
2024-02-08T18:29:04.300Z,97586.91
2024-02-08T18:31:36.206Z,97585.22
2024-02-08T18:34:03.791Z,97577.41
2024-02-08T18:36:31.590Z,97573.91
2024-02-08T18:38:59.551Z,97577.41
2024-02-08T18:41:27.119Z,97578.34
2024-02-08T18:43:54.047Z,97574.00
2024-02-08T18:46:25.151Z,97577.53
2024-02-08T18:48:57.602Z,97575.75
2024-02-08T18:51:24.615Z,97580.03
2024-02-08T18:53:51.562Z,97572.13
2024-02-08T18:56:19.495Z,97569.50
2024-02-08T18:58:51.720Z,97570.34
2024-02-08T19:01:18.845Z,97580.78
2024-02-08T19:03:47.484Z,97566.09
2024-02-08T19:06:17.194Z,97561.78
2024-02-08T19:08:45.128Z,97559.19
2024-02-08T19:11:12.077Z,97560.97
2024-02-08T19:13:40.357Z,97546.31
2024-02-08T19:16:17.962Z,97545.47
2024-02-08T19:18:47.590Z,97515.88
2024-02-08T19:21:28.536Z,97505.78
2024-02-08T19:23:56.954Z,97512.56
2024-02-08T19:26:26.106Z,97503.06
2024-02-08T19:28:53.536Z,97517.97
2024-02-08T19:31:20.705Z,97528.47
2024-02-08T19:33:52.265Z,97525.06
2024-02-08T19:36:25.063Z,97531.06
2024-02-08T19:38:55.643Z,97523.25
2024-02-08T19:41:23.651Z,97511.81
2024-02-08T19:43:51.010Z,97496.09
2024-02-08T19:46:21.096Z,97481.22
2024-02-08T19:48:58.910Z,97472.56
2024-02-08T19:51:31.873Z,97468.19
2024-02-08T19:54:09.293Z,97469.97
2024-02-08T19:56:38.012Z,97457.88
2024-02-08T19:59:06.795Z,97466.59
2024-02-08T20:01:39.491Z,97464.13
2024-02-08T20:04:14.964Z,97462.44
2024-02-08T20:06:49.043Z,97455.47
2024-02-08T20:09:19.238Z,97459.75
2024-02-08T20:11:52.812Z,97454.53
2024-02-08T20:14:22.567Z,97444.13
2024-02-08T20:16:51.431Z,97445.78
2024-02-08T20:19:19.328Z,97437.06
2024-02-08T20:21:46.586Z,97439.66
2024-02-08T20:24:14.613Z,97429.25
2024-02-08T20:26:49.016Z,97430.06
2024-02-08T20:29:18.303Z,97438.72
2024-02-08T20:31:45.672Z,97426.66
2024-02-08T20:34:13.143Z,97435.28
2024-02-08T20:36:43.876Z,97408.31
2024-02-08T20:39:19.728Z,97408.31
2024-02-08T20:41:49.147Z,97424.75
2024-02-08T20:44:19.072Z,97440.28
2024-02-08T20:46:49.654Z,97428.09
2024-02-08T20:49:21.445Z,97415.00
2024-02-08T20:51:53.895Z,97407.91
2024-02-08T20:54:20.741Z,97419.97
2024-02-08T20:56:53.803Z,97420.06
2024-02-08T20:59:21.571Z,97416.56
2024-02-08T21:01:48.112Z,97410.41
2024-02-08T21:04:21.182Z,97413.00
2024-02-08T21:06:48.917Z,97413.00
2024-02-08T21:09:15.749Z,97406.84
2024-02-08T21:11:43.631Z,97406.75
2024-02-08T21:14:10.206Z,97384.16
2024-02-08T21:16:40.690Z,97399.78
2024-02-08T21:19:10.242Z,97391.84
2024-02-08T21:21:37.595Z,97390.06
2024-02-08T21:24:05.653Z,97387.38
2024-02-08T21:26:35.580Z,97383.00
2024-02-08T21:29:02.215Z,97390.69
2024-02-08T21:31:28.918Z,97385.38
2024-02-08T21:33:57.912Z,97376.53
2024-02-08T21:36:26.557Z,97362.59
2024-02-08T21:38:53.381Z,97358.09
2024-02-08T21:41:20.421Z,97350.28
2024-02-08T21:43:51.537Z,97352.78
2024-02-08T21:46:22.262Z,97346.63
2024-02-08T21:48:48.859Z,97355.38
2024-02-08T21:51:16.921Z,97349.22
2024-02-08T21:53:43.529Z,97353.47
2024-02-08T21:56:13.422Z,97351.81
2024-02-08T21:58:40.025Z,97349.97
2024-02-08T22:03:50.441Z,97348.91
2024-02-08T22:06:21.557Z,97348.06
2024-02-08T22:08:49.399Z,97351.41
2024-02-08T22:11:16.386Z,97339.09
2024-02-08T22:13:42.977Z,97337.22
2024-02-08T22:16:22.139Z,97333.88
2024-02-08T22:18:48.875Z,97333.69
2024-02-08T22:21:16.630Z,97339.59
2024-02-08T22:23:44.828Z,97337.84
2024-02-08T22:26:13.854Z,97338.44
2024-02-08T22:28:44.005Z,97338.44
2024-02-08T22:31:12.418Z,97338.22
2024-02-08T22:33:39.490Z,97334.56
2024-02-08T22:36:10.788Z,97334.47
2024-02-08T22:38:38.536Z,97334.25
2024-02-08T22:41:05.131Z,97333.31
2024-02-08T22:43:32.626Z,97326.19
2024-02-08T22:45:59.371Z,97321.72
2024-02-08T22:48:25.952Z,97327.63
2024-02-08T22:50:52.724Z,97334.50
2024-02-08T22:53:20.775Z,97316.16
2024-02-08T22:55:47.559Z,97322.91
2024-02-08T22:58:14.231Z,97316.78
2024-02-08T23:00:50.378Z,97313.22
2024-02-08T23:03:17.665Z,97294.78
2024-02-08T23:05:55.813Z,97309.69
2024-02-08T23:08:25.592Z,97294.78
2024-02-08T23:10:52.231Z,97292.03
2024-02-08T23:13:19.728Z,97290.16
2024-02-08T23:15:48.088Z,97279.63
2024-02-08T23:18:16.665Z,97276.06
2024-02-08T23:20:44.931Z,97272.50
2024-02-08T23:23:12.455Z,97270.63
2024-02-08T23:25:40.886Z,97262.72
2024-02-08T23:28:09.894Z,97270.38
2024-02-08T23:30:36.763Z,97268.41
2024-02-08T23:33:06.559Z,97257.03
2024-02-08T23:35:33.173Z,97268.06
2024-02-08T23:38:06.538Z,97260.84
2024-02-08T23:40:33.352Z,97265.00
2024-02-08T23:43:01.547Z,97269.25
2024-02-08T23:45:31.613Z,97264.78
2024-02-08T23:47:59.919Z,97274.16
2024-02-08T23:50:28.500Z,97269.53
2024-02-08T23:53:02.308Z,97258.03
2024-02-08T23:55:30.117Z,97256.00
2024-02-08T23:57:57.441Z,97262.66
